createdAt,value
2022-09-06T00:00:03.080Z,51.40
2022-09-06T00:02:32.868Z,51.80
2022-09-06T00:05:00.889Z,52.60
2022-09-06T00:07:30.287Z,52.40
2022-09-06T00:09:58.356Z,52.50
2022-09-06T00:12:26.385Z,52.20
2022-09-06T00:14:54.325Z,52.40
2022-09-06T00:17:22.290Z,51.40
2022-09-06T00:19:50.263Z,52.10
2022-09-06T00:22:18.211Z,52.60
2022-09-06T00:24:47.554Z,52.40
2022-09-06T00:27:15.515Z,51.90
2022-09-06T00:29:43.479Z,51.70
2022-09-06T00:32:11.406Z,51.30
2022-09-06T00:34:39.403Z,51.00
2022-09-06T00:37:07.323Z,51.10
2022-09-06T00:39:35.382Z,51.20
2022-09-06T00:42:04.748Z,50.90
2022-09-06T00:44:32.743Z,50.70
2022-09-06T00:47:00.659Z,51.50
2022-09-06T00:49:29.120Z,51.20
2022-09-06T00:51:57.319Z,51.00
2022-09-06T00:54:25.504Z,51.80
2022-09-06T00:56:53.424Z,51.70
2022-09-06T00:59:23.114Z,51.30
2022-09-06T01:01:51.157Z,51.60
2022-09-06T01:04:19.190Z,51.40
2022-09-06T01:06:49.531Z,50.80
2022-09-06T01:09:21.007Z,51.00
2022-09-06T01:11:52.226Z,50.90
2022-09-06T01:14:23.528Z,51.50
2022-09-06T01:16:52.529Z,52.40
2022-09-06T01:19:32.309Z,51.70
2022-09-06T01:22:03.958Z,52.10
2022-09-06T01:24:47.645Z,51.60
2022-09-06T01:27:36.256Z,51.90
2022-09-06T01:30:06.446Z,52.60
2022-09-06T01:32:36.682Z,51.90
2022-09-06T01:35:05.949Z,52.50
2022-09-06T01:37:33.894Z,51.90
2022-09-06T01:40:01.893Z,52.00
2022-09-06T01:42:31.335Z,51.20
2022-09-06T01:44:59.750Z,57.30
2022-09-06T01:47:33.835Z,55.40
2022-09-06T01:50:06.180Z,53.50
2022-09-06T01:52:35.186Z,52.60
2022-09-06T01:55:11.544Z,53.30
2022-09-06T01:57:42.812Z,54.30
2022-09-06T02:00:10.891Z,55.60
2022-09-06T02:02:43.828Z,58.90
2022-09-06T02:05:13.056Z,61.40
2022-09-06T02:07:40.971Z,63.10
2022-09-06T02:10:09.495Z,65.00
2022-09-06T02:12:37.984Z,63.60
2022-09-06T02:15:06.765Z,61.70
2022-09-06T02:17:35.809Z,63.20
2022-09-06T02:20:06.416Z,62.40
2022-09-06T02:22:34.803Z,64.20
2022-09-06T02:25:02.715Z,65.70
2022-09-06T02:27:31.224Z,66.90
2022-09-06T02:29:59.285Z,68.00
2022-09-06T02:32:27.316Z,65.10
2022-09-06T02:34:55.740Z,65.90
2022-09-06T02:37:26.243Z,65.80
2022-09-06T02:39:55.482Z,65.30
2022-09-06T02:42:23.397Z,63.90
2022-09-06T02:44:51.338Z,63.00
2022-09-06T02:47:19.211Z,62.90
2022-09-06T02:49:47.215Z,62.60
2022-09-06T02:52:15.720Z,62.90
2022-09-06T02:54:45.052Z,62.90
2022-09-06T02:57:12.965Z,61.60
2022-09-06T02:59:41.039Z,63.10
2022-09-06T03:02:08.985Z,63.10
2022-09-06T03:04:37.026Z,65.30
2022-09-06T03:07:04.978Z,66.50
2022-09-06T03:09:32.917Z,64.30
2022-09-06T03:12:02.232Z,65.20
2022-09-06T03:14:30.150Z,65.60
2022-09-06T03:16:58.144Z,65.10
2022-09-06T03:19:26.122Z,66.00
2022-09-06T03:21:54.039Z,67.20
2022-09-06T03:24:21.999Z,67.30
2022-09-06T03:26:50.438Z,67.20
2022-09-06T03:29:19.792Z,65.90
2022-09-06T03:31:47.709Z,65.40
2022-09-06T03:34:15.652Z,65.00
2022-09-06T03:36:43.560Z,65.90
2022-09-06T03:39:13.362Z,65.20
2022-09-06T03:41:41.302Z,65.90
2022-09-06T03:44:09.303Z,67.70
2022-09-06T03:46:38.595Z,66.10
2022-09-06T03:49:06.531Z,65.30
2022-09-06T03:51:34.454Z,64.80
2022-09-06T03:54:02.420Z,66.10
2022-09-06T03:56:30.346Z,65.60
2022-09-06T03:58:58.341Z,67.20
2022-09-06T04:01:26.348Z,68.30
2022-09-06T04:03:55.687Z,67.90
2022-09-06T04:06:23.649Z,65.80
2022-09-06T04:08:51.630Z,66.10
2022-09-06T04:11:19.638Z,66.10
2022-09-06T04:13:47.632Z,65.20
2022-09-06T04:16:17.630Z,65.70
2022-09-06T04:18:45.686Z,65.10
2022-09-06T04:21:14.958Z,65.80
2022-09-06T04:23:42.959Z,65.00
2022-09-06T04:26:10.933Z,64.40
2022-09-06T04:28:38.952Z,64.70
2022-09-06T04:31:06.970Z,65.70
2022-09-06T04:33:35.321Z,65.90
2022-09-06T04:36:03.682Z,67.40
2022-09-06T04:38:35.815Z,66.70
2022-09-06T04:41:03.748Z,67.00
2022-09-06T04:43:31.707Z,66.50
2022-09-06T04:46:03.559Z,65.70
2022-09-06T04:48:31.545Z,65.70
2022-09-06T04:50:59.513Z,65.90
2022-09-06T04:53:27.478Z,65.90
2022-09-06T04:55:58.811Z,66.20
2022-09-06T04:58:26.921Z,65.70
2022-09-06T05:00:54.983Z,65.50
2022-09-06T05:03:22.995Z,66.40
2022-09-06T05:05:50.899Z,65.40
2022-09-06T05:08:18.925Z,65.10
2022-09-06T05:10:46.880Z,66.00
2022-09-06T05:13:16.183Z,65.20
2022-09-06T05:15:45.164Z,66.10
2022-09-06T05:18:16.182Z,65.60
2022-09-06T05:20:44.303Z,65.90
2022-09-06T05:23:12.305Z,67.50
2022-09-06T05:25:40.319Z,66.50
2022-09-06T05:28:08.265Z,67.20
2022-09-06T05:30:37.627Z,67.70
2022-09-06T05:33:05.539Z,66.60
2022-09-06T05:35:33.593Z,68.10
2022-09-06T05:38:01.527Z,67.80
2022-09-06T05:40:29.516Z,66.30
2022-09-06T05:42:57.523Z,66.10
2022-09-06T05:45:25.504Z,66.50
2022-09-06T05:47:54.906Z,66.50
2022-09-06T05:50:22.930Z,66.50
2022-09-06T05:52:50.887Z,66.50
2022-09-06T05:55:18.908Z,65.90
2022-09-06T05:57:46.863Z,66.60
2022-09-06T06:00:15.308Z,65.40
2022-09-06T06:02:43.283Z,65.50
2022-09-06T06:05:12.649Z,65.90
2022-09-06T06:07:40.616Z,65.50
2022-09-06T06:10:08.754Z,65.00
2022-09-06T06:12:36.696Z,66.20
2022-09-06T06:15:05.891Z,65.80
2022-09-06T06:17:34.552Z,65.90
2022-09-06T06:20:03.187Z,66.00
2022-09-06T06:22:32.701Z,65.90
2022-09-06T06:25:00.817Z,64.60
2022-09-06T06:27:28.738Z,65.40
2022-09-06T06:29:59.728Z,65.80
2022-09-06T06:32:29.555Z,65.30
2022-09-06T06:34:57.519Z,64.80
2022-09-06T06:37:25.402Z,65.50
2022-09-06T06:39:54.802Z,65.30
2022-09-06T06:42:22.761Z,64.30
2022-09-06T06:44:53.211Z,64.60
2022-09-06T06:47:21.160Z,64.80
2022-09-06T06:49:49.536Z,64.30
2022-09-06T06:52:17.409Z,64.80
2022-09-06T06:54:45.308Z,64.30
2022-09-06T06:57:14.581Z,63.70
2022-09-06T06:59:42.461Z,63.40
2022-09-06T07:02:10.464Z,64.50
2022-09-06T07:04:38.605Z,63.50
2022-09-06T07:12:43.744Z,63.00
2022-09-06T07:15:11.794Z,61.70
2022-09-06T07:17:39.826Z,61.30
2022-09-06T07:22:40.564Z,60.10
2022-09-06T07:25:09.005Z,60.20
2022-09-06T07:27:52.354Z,60.40
2022-09-06T07:30:21.795Z,59.60
2022-09-06T07:32:49.841Z,61.50
2022-09-06T07:35:19.970Z,59.50
2022-09-06T07:37:53.923Z,60.80
2022-09-06T07:40:21.879Z,60.80
2022-09-06T07:42:49.743Z,60.40
2022-09-06T07:45:17.788Z,59.70
2022-09-06T07:48:02.391Z,60.40
2022-09-06T07:50:47.366Z,60.90
2022-09-06T07:53:23.004Z,58.50
2022-09-06T07:55:57.162Z,57.70
2022-09-06T07:58:25.137Z,58.70
2022-09-06T08:00:53.089Z,59.00
2022-09-06T08:03:22.479Z,56.70
2022-09-06T08:11:27.749Z,56.70
2022-09-06T08:13:56.390Z,55.80
2022-09-06T08:16:24.481Z,53.70
2022-09-06T08:18:53.980Z,52.00
2022-09-06T08:21:23.591Z,50.70
2022-09-06T08:23:52.211Z,50.80
2022-09-06T08:26:20.886Z,50.80
2022-09-06T08:28:48.783Z,50.90
2022-09-06T08:31:17.670Z,49.80
2022-09-06T08:33:47.668Z,49.60
2022-09-06T08:36:16.932Z,49.90
2022-09-06T08:38:45.746Z,50.00
2022-09-06T08:41:19.138Z,49.40
2022-09-06T08:43:48.992Z,48.00
2022-09-06T08:46:16.973Z,47.50
2022-09-06T08:48:44.931Z,47.00
2022-09-06T08:51:33.371Z,46.30
2022-09-06T08:54:05.103Z,46.90
2022-09-06T08:56:33.836Z,47.20
2022-09-06T08:59:03.991Z,46.70
2022-09-06T09:01:33.893Z,46.40
2022-09-06T09:04:03.329Z,46.40
2022-09-06T09:06:31.268Z,46.10
2022-09-06T09:09:01.670Z,46.10
2022-09-06T09:11:33.532Z,45.60
2022-09-06T09:14:03.134Z,45.10
2022-09-06T09:16:31.104Z,45.10
2022-09-06T09:19:00.361Z,43.90
2022-09-06T09:21:30.896Z,44.20
2022-09-06T09:23:59.972Z,44.50
2022-09-06T09:26:28.202Z,43.50
2022-09-06T09:29:10.262Z,43.00
2022-09-06T09:31:39.389Z,43.40
2022-09-06T09:34:08.082Z,44.50
2022-09-06T09:36:36.080Z,44.20
2022-09-06T09:39:05.771Z,44.00
2022-09-06T09:41:34.019Z,44.40
2022-09-06T09:44:04.642Z,44.20
2022-09-06T09:46:34.710Z,44.40
2022-09-06T09:49:03.834Z,44.10
2022-09-06T09:51:32.160Z,43.60
2022-09-06T09:54:00.641Z,43.70
2022-09-06T09:56:34.484Z,43.80
2022-09-06T09:59:02.393Z,43.20
2022-09-06T10:01:30.993Z,43.40
2022-09-06T10:09:36.439Z,43.50
2022-09-06T10:12:05.039Z,43.40
2022-09-06T10:14:33.486Z,44.70
2022-09-06T10:17:01.390Z,43.40
2022-09-06T10:19:38.456Z,44.60
2022-09-06T10:22:09.980Z,45.00
2022-09-06T10:24:40.380Z,44.20
2022-09-06T10:27:08.443Z,44.60
2022-09-06T10:29:37.245Z,45.20
2022-09-06T10:32:08.539Z,44.80
2022-09-06T10:34:58.619Z,44.30
2022-09-06T10:37:33.431Z,46.50
2022-09-06T10:40:02.585Z,45.70
2022-09-06T10:42:32.299Z,46.30
2022-09-06T10:45:04.672Z,45.20
2022-09-06T10:47:33.631Z,44.40
2022-09-06T10:50:02.335Z,44.20
2022-09-06T10:52:33.659Z,44.20
2022-09-06T10:55:03.899Z,44.30
2022-09-06T11:00:20.700Z,43.30
2022-09-06T11:05:39.485Z,41.80
2022-09-06T11:10:58.297Z,42.90
2022-09-06T11:13:26.590Z,41.60
2022-09-06T11:15:56.501Z,41.50
2022-09-06T11:18:25.219Z,41.30
2022-09-06T11:20:55.402Z,39.60
2022-09-06T11:23:30.571Z,39.80
2022-09-06T11:26:16.443Z,39.10
2022-09-06T11:28:45.519Z,39.60
2022-09-06T11:34:03.362Z,40.50
2022-09-06T11:36:35.292Z,38.50
2022-09-06T11:39:05.154Z,39.70
2022-09-06T11:41:33.629Z,39.60
2022-09-06T11:44:01.581Z,38.50
2022-09-06T11:46:48.550Z,38.70
2022-09-06T11:49:29.280Z,38.20
2022-09-06T11:51:57.191Z,38.20
2022-09-06T11:54:31.585Z,39.10
2022-09-06T11:56:59.750Z,38.00
2022-09-06T11:59:30.476Z,37.50
2022-09-06T12:02:02.249Z,37.60
2022-09-06T12:04:49.400Z,37.70
2022-09-06T12:07:17.288Z,38.20
2022-09-06T12:09:46.715Z,37.80
2022-09-06T12:12:16.997Z,37.70
2022-09-06T12:14:46.828Z,36.70
2022-09-06T12:17:23.683Z,37.40
2022-09-06T12:19:52.021Z,37.30
2022-09-06T12:22:40.330Z,36.50
2022-09-06T12:25:18.133Z,36.10
2022-09-06T12:27:52.398Z,36.10
2022-09-06T12:30:31.449Z,34.80
2022-09-06T12:32:59.324Z,35.50
2022-09-06T12:38:15.903Z,40.10
2022-09-06T12:40:47.894Z,37.70
2022-09-06T12:43:16.941Z,35.00
2022-09-06T12:45:45.278Z,35.20
2022-09-06T12:48:13.934Z,35.50
2022-09-06T12:50:41.846Z,36.20
2022-09-06T12:53:23.320Z,36.80
2022-09-06T12:55:53.390Z,35.90
2022-09-06T12:58:23.242Z,35.90
2022-09-06T13:00:52.037Z,36.10
2022-09-06T13:03:22.957Z,35.70
2022-09-06T13:05:50.906Z,37.10
2022-09-06T13:08:19.746Z,36.80
2022-09-06T13:10:47.669Z,35.60
2022-09-06T13:13:20.184Z,34.70
2022-09-06T13:15:48.193Z,36.00
2022-09-06T13:18:27.821Z,35.10
2022-09-06T13:20:59.400Z,34.90
2022-09-06T13:23:27.412Z,33.70
2022-09-06T13:25:55.769Z,35.50
2022-09-06T13:28:28.950Z,35.10
2022-09-06T13:31:03.896Z,34.70
2022-09-06T13:33:31.808Z,33.60
2022-09-06T13:36:08.351Z,33.90
2022-09-06T13:38:39.620Z,34.60
2022-09-06T13:41:15.865Z,33.60
2022-09-06T13:43:46.142Z,33.50
2022-09-06T13:46:14.103Z,33.40
2022-09-06T13:48:44.540Z,34.40
2022-09-06T13:51:13.353Z,33.90
2022-09-06T13:53:41.288Z,34.10
2022-09-06T13:56:09.263Z,33.40
2022-09-06T13:58:37.261Z,34.80
2022-09-06T14:01:09.982Z,34.50
2022-09-06T14:03:38.346Z,36.10
2022-09-06T14:06:07.177Z,35.70
2022-09-06T14:09:02.912Z,36.60
2022-09-06T14:11:25.449Z,34.60
2022-09-06T14:13:53.373Z,33.40
2022-09-06T14:16:22.705Z,33.30
2022-09-06T14:18:51.969Z,33.60
2022-09-06T14:21:19.911Z,33.80
2022-09-06T14:23:51.052Z,34.90
2022-09-06T14:26:19.790Z,34.80
2022-09-06T14:28:47.774Z,34.50
2022-09-06T14:31:16.088Z,35.80
2022-09-06T14:33:45.399Z,35.20
2022-09-06T14:36:14.300Z,34.70
2022-09-06T14:38:43.059Z,34.40
2022-09-06T14:41:11.115Z,34.10
2022-09-06T14:43:39.192Z,34.70
2022-09-06T14:46:07.538Z,34.30
2022-09-06T14:48:38.171Z,35.50
2022-09-06T14:51:10.969Z,35.60
2022-09-06T14:53:40.878Z,35.80
2022-09-06T14:56:09.207Z,36.50
2022-09-06T14:58:37.867Z,36.00
2022-09-06T15:01:13.055Z,34.70
2022-09-06T15:03:41.363Z,34.40
2022-09-06T15:06:10.817Z,34.60
2022-09-06T15:08:38.978Z,35.20
2022-09-06T15:11:08.278Z,35.20
2022-09-06T15:13:37.338Z,35.40
2022-09-06T15:16:05.804Z,35.30
2022-09-06T15:18:34.190Z,35.60
2022-09-06T15:21:10.948Z,36.90
2022-09-06T15:23:39.676Z,37.00
2022-09-06T15:26:07.982Z,36.20
2022-09-06T15:28:36.309Z,39.00
2022-09-06T15:31:04.313Z,38.20
2022-09-06T15:33:32.409Z,37.80
2022-09-06T15:36:07.060Z,36.50
2022-09-06T15:38:36.456Z,35.20
2022-09-06T15:41:08.097Z,35.80
2022-09-06T15:43:36.776Z,35.40
2022-09-06T15:46:04.851Z,34.90
2022-09-06T15:48:33.014Z,34.60
2022-09-06T15:51:01.680Z,34.90
2022-09-06T15:53:29.918Z,34.50
2022-09-06T15:56:02.627Z,33.90
2022-09-06T15:58:30.637Z,33.70
2022-09-06T16:01:05.987Z,35.20
2022-09-06T16:03:34.140Z,34.10
2022-09-06T16:08:50.898Z,33.90
2022-09-06T16:11:20.239Z,34.60
2022-09-06T16:13:48.597Z,34.10
2022-09-06T16:16:16.868Z,34.50
2022-09-06T16:18:46.354Z,33.80
2022-09-06T16:21:14.786Z,33.60
2022-09-06T16:23:42.822Z,33.50
2022-09-06T16:26:10.735Z,34.00
2022-09-06T16:28:40.227Z,34.10
2022-09-06T16:31:11.501Z,33.10
2022-09-06T16:33:40.287Z,32.90
2022-09-06T16:36:09.479Z,32.80
2022-09-06T16:38:40.552Z,33.60
2022-09-06T16:41:13.173Z,33.40
2022-09-06T16:43:42.742Z,34.90
2022-09-06T16:46:10.764Z,33.70
2022-09-06T16:48:40.626Z,33.60
2022-09-06T16:51:12.286Z,34.20
2022-09-06T16:53:40.898Z,34.60
2022-09-06T16:56:11.773Z,35.00
2022-09-06T16:58:41.879Z,35.00
2022-09-06T17:01:11.344Z,35.30
2022-09-06T17:03:39.514Z,35.80
2022-09-06T17:06:07.871Z,36.00
2022-09-06T17:08:36.455Z,35.10
2022-09-06T17:11:04.865Z,35.30
2022-09-06T17:13:32.855Z,35.70
2022-09-06T17:16:22.317Z,36.00
2022-09-06T17:18:53.817Z,35.80
2022-09-06T17:21:21.963Z,37.10
2022-09-06T17:23:50.759Z,37.70
2022-09-06T17:26:19.712Z,38.70
2022-09-06T17:28:48.038Z,39.20
2022-09-06T17:31:16.290Z,39.90
2022-09-06T17:33:44.483Z,40.10
2022-09-06T17:36:14.705Z,39.70
2022-09-06T17:38:43.025Z,40.00
2022-09-06T17:41:12.877Z,41.20
2022-09-06T17:43:41.029Z,42.30
2022-09-06T17:46:09.054Z,42.70
2022-09-06T17:48:37.347Z,42.60
2022-09-06T17:51:08.552Z,43.50
2022-09-06T17:53:37.905Z,43.90
2022-09-06T17:56:06.364Z,45.00
2022-09-06T17:58:34.369Z,45.20
2022-09-06T18:01:03.290Z,45.50
2022-09-06T18:03:32.277Z,45.70
2022-09-06T18:06:03.647Z,46.80
2022-09-06T18:08:31.710Z,47.30
2022-09-06T18:11:01.292Z,47.10
2022-09-06T18:13:29.403Z,46.60
2022-09-06T18:15:57.388Z,46.20
2022-09-06T18:18:25.475Z,46.20
2022-09-06T18:20:53.445Z,46.90
2022-09-06T18:23:21.575Z,46.90
2022-09-06T18:26:01.259Z,46.80
2022-09-06T18:28:32.871Z,47.30
2022-09-06T18:31:00.973Z,48.00
2022-09-06T18:33:29.499Z,47.80
2022-09-06T18:35:57.486Z,47.90
2022-09-06T18:38:26.029Z,48.60
2022-09-06T18:40:56.826Z,47.80
2022-09-06T18:43:25.818Z,48.40
2022-09-06T18:46:00.982Z,48.20
2022-09-06T18:48:32.160Z,48.10
2022-09-06T18:51:04.382Z,47.80
2022-09-06T18:53:33.628Z,47.80
2022-09-06T18:56:01.717Z,47.80
2022-09-06T18:58:29.835Z,48.30
2022-09-06T19:01:03.878Z,48.90
2022-09-06T19:03:32.109Z,49.10
2022-09-06T19:06:02.928Z,49.20
2022-09-06T19:08:30.906Z,49.10
2022-09-06T19:11:03.298Z,48.60
2022-09-06T19:13:31.325Z,48.70
2022-09-06T19:15:59.271Z,49.50
2022-09-06T19:18:28.654Z,49.20
2022-09-06T19:20:59.638Z,50.20
2022-09-06T19:23:27.617Z,50.10
2022-09-06T19:25:59.097Z,50.10
2022-09-06T19:28:27.528Z,49.80
2022-09-06T19:30:55.585Z,49.80
2022-09-06T19:33:23.455Z,50.70
2022-09-06T19:36:10.562Z,50.60
2022-09-06T19:38:59.587Z,50.90
2022-09-06T19:41:27.336Z,50.50
2022-09-06T19:43:55.559Z,50.40
2022-09-06T19:46:23.559Z,50.30
2022-09-06T19:48:51.871Z,49.90
2022-09-06T19:51:21.182Z,49.50
2022-09-06T19:53:49.776Z,49.90
2022-09-06T19:56:18.311Z,49.80
2022-09-06T19:58:46.380Z,50.70
2022-09-06T20:01:17.956Z,50.10
2022-09-06T20:03:46.615Z,50.20
2022-09-06T20:06:14.513Z,51.40
2022-09-06T20:08:43.829Z,50.90
2022-09-06T20:11:12.917Z,50.50
2022-09-06T20:13:42.945Z,50.40
2022-09-06T20:16:12.534Z,49.80
2022-09-06T20:18:40.595Z,49.50
2022-09-06T20:21:08.599Z,49.70
2022-09-06T20:23:36.841Z,50.30
2022-09-06T20:26:07.255Z,50.40
2022-09-06T20:28:35.719Z,50.10
2022-09-06T20:31:04.280Z,50.00
2022-09-06T20:33:34.620Z,50.40
2022-09-06T20:36:06.594Z,50.80
2022-09-06T20:38:37.421Z,51.00
2022-09-06T20:41:08.207Z,50.70
2022-09-06T20:43:37.981Z,50.40
2022-09-06T20:46:10.198Z,51.00
2022-09-06T20:48:44.688Z,51.80
2022-09-06T20:51:14.170Z,51.40
2022-09-06T20:53:42.429Z,51.70
2022-09-06T20:56:12.602Z,52.00
2022-09-06T20:58:41.808Z,52.60
2022-09-06T21:01:11.332Z,54.20
2022-09-06T21:03:40.675Z,52.90
2022-09-06T21:06:10.098Z,53.40
2022-09-06T21:08:42.558Z,53.60
2022-09-06T21:11:15.166Z,54.10
2022-09-06T21:13:49.072Z,54.00
2022-09-06T21:16:21.858Z,54.10
2022-09-06T21:18:53.207Z,53.90
2022-09-06T21:21:21.532Z,53.30
2022-09-06T21:23:49.764Z,53.10
2022-09-06T21:26:19.307Z,53.90
2022-09-06T21:28:47.621Z,54.00
2022-09-06T21:31:16.234Z,54.20
2022-09-06T21:33:44.619Z,53.70
2022-09-06T21:36:13.101Z,53.40
2022-09-06T21:38:42.201Z,53.90
2022-09-06T21:41:10.254Z,54.00
2022-09-06T21:43:39.596Z,53.80
2022-09-06T21:46:07.903Z,55.30
2022-09-06T21:48:37.969Z,54.90
2022-09-06T21:51:07.698Z,55.20
2022-09-06T21:53:35.625Z,55.10
2022-09-06T21:56:03.731Z,54.40
2022-09-06T21:58:31.685Z,54.20
2022-09-06T22:01:01.439Z,53.70
2022-09-06T22:03:29.938Z,53.80
2022-09-06T22:05:57.825Z,53.90
2022-09-06T22:08:25.845Z,54.10
2022-09-06T22:10:54.073Z,54.70
2022-09-06T22:13:21.981Z,54.50
2022-09-06T22:15:49.935Z,54.50
2022-09-06T22:18:19.481Z,53.40
2022-09-06T22:20:47.437Z,53.80
2022-09-06T22:23:15.342Z,53.40
2022-09-06T22:25:43.431Z,54.70
2022-09-06T22:28:11.333Z,54.70
2022-09-06T22:30:39.259Z,55.00
2022-09-06T22:33:07.514Z,55.40
2022-09-06T22:35:37.869Z,56.50
2022-09-06T22:38:06.203Z,54.80
2022-09-06T22:40:34.220Z,54.90
2022-09-06T22:43:02.496Z,56.90
2022-09-06T22:45:30.433Z,56.80
2022-09-06T22:47:58.316Z,56.60
2022-09-06T22:50:26.251Z,56.40
2022-09-06T22:52:55.502Z,57.30
2022-09-06T22:55:24.196Z,56.70
2022-09-06T22:57:52.082Z,56.20
2022-09-06T23:00:20.206Z,57.50
2022-09-06T23:02:48.080Z,57.10
2022-09-06T23:05:16.422Z,58.50
2022-09-06T23:07:44.461Z,57.90
2022-09-06T23:10:13.765Z,57.10
2022-09-06T23:12:41.657Z,56.90
2022-09-06T23:15:09.861Z,56.10
2022-09-06T23:17:37.735Z,56.50
2022-09-06T23:20:06.344Z,56.80
2022-09-06T23:22:34.273Z,56.10
2022-09-06T23:25:02.488Z,56.80
2022-09-06T23:27:31.745Z,57.60
2022-09-06T23:29:59.902Z,56.80
2022-09-06T23:32:27.794Z,57.00
2022-09-06T23:34:56.159Z,56.80
2022-09-06T23:37:24.113Z,57.00
2022-09-06T23:39:52.647Z,57.50
2022-09-06T23:42:21.096Z,57.40
2022-09-06T23:44:54.434Z,57.40
2022-09-06T23:47:22.307Z,59.20
2022-09-06T23:49:50.572Z,58.80
2022-09-06T23:52:18.456Z,59.40
2022-09-06T23:54:46.365Z,59.50
2022-09-06T23:57:14.231Z,59.50
2022-09-06T23:59:42.138Z,59.60
